PWSweather.com
Personal Weather Stations
Station Observations
WD4JKH
Forsyth, GA 31029

Forsyth, GA 31029

Lat: 33.033225, Lon: -83.927995

Elevation: 709

Station Type: Davis Vantage VUE

High Low Average
Temperature 82.6°F28.1°C 67.5°F19.7°C 73.2°F22.9°C
Dew Point 74.0°F23.3°C 65.9°F18.8°C 68.8°F20.4°C
Winds 6.2 mph 10.0 kmh Calm Calm 2.0 mph S3.2 kmh S
Wind Gusts 22.0 mph35.4 kmh -- 6.0 mph9.7 kmh
Humidity 96% 68% 87%
Pressure 30.02 in1016.6 mb 29.85 in1010.8 mb -
Precipitation 0.62 in15.7 mm - -
Hour Temp Dew Point Humidity Winds Wind Gusts Pressure Precip Precip Rate Daily Precip Total
12:00 AM 72.5°F22.5°C 68.1°F20.1°C 86% 2.4 mph SW3.9 kmh SW 6.0 mph9.7 kmh 30.02 in1016.6 mb 0.00 in0.0 mm 0.00 in0.0 mm 0.01 in0.3 mm
12:05 AM 72.4°F22.4°C 68.3°F20.2°C 87% 1.0 mph SW1.6 kmh SW 6.0 mph9.7 kmh 30.01 in1016.3 mb 0.00 in0.0 mm 0.00 in0.0 mm 0.00 in0.0 mm
12:10 AM 72.3°F22.4°C 68.2°F20.1°C 87% 1.6 mph SW2.6 kmh SW 5.0 mph8.0 kmh 30.01 in1016.3 mb 0.00 in0.0 mm 0.00 in0.0 mm 0.00 in0.0 mm
12:15 AM 72.2°F22.3°C 68.1°F20.1°C 87% 1.8 mph SW2.9 kmh SW 5.0 mph8.0 kmh 30.01 in1016.3 mb 0.00 in0.0 mm 0.00 in0.0 mm 0.00 in0.0 mm
12:20 AM 72.1°F22.3°C 68.4°F20.2°C 88% 1.7 mph WSW2.7 kmh WSW 5.0 mph8.0 kmh 30.01 in1016.3 mb 0.00 in0.0 mm 0.00 in0.0 mm 0.00 in0.0 mm
12:25 AM 71.9°F22.2°C 68.2°F20.1°C 88% 2.7 mph SW4.3 kmh SW 5.0 mph8.0 kmh 30.02 in1016.6 mb 0.00 in0.0 mm 0.00 in0.0 mm 0.00 in0.0 mm
12:31 AM 71.7°F22.1°C 68.0°F20.0°C 88% 1.6 mph SW2.6 kmh SW 5.0 mph8.0 kmh 30.02 in1016.6 mb 0.00 in0.0 mm 0.00 in0.0 mm 0.00 in0.0 mm
12:36 AM 71.6°F22.0°C 68.2°F20.1°C 89% 1.2 mph SW1.9 kmh SW 5.0 mph8.0 kmh 30.02 in1016.6 mb 0.00 in0.0 mm 0.00 in0.0 mm 0.00 in0.0 mm
12:41 AM 71.6°F22.0°C 67.9°F19.9°C 88% 3.0 mph SW4.8 kmh SW 7.0 mph11.3 kmh 30.02 in1016.6 mb 0.00 in0.0 mm 0.00 in0.0 mm 0.00 in0.0 mm
12:46 AM 71.6°F22.0°C 67.9°F19.9°C 88% 2.1 mph SW3.4 kmh SW 7.0 mph11.3 kmh 30.02 in1016.6 mb 0.00 in0.0 mm 0.00 in0.0 mm 0.00 in0.0 mm
12:51 AM 71.6°F22.0°C 67.9°F19.9°C 88% 2.3 mph SW3.7 kmh SW 7.0 mph11.3 kmh 30.02 in1016.6 mb 0.00 in0.0 mm 0.00 in0.0 mm 0.00 in0.0 mm
12:56 AM 71.5°F21.9°C 67.8°F19.9°C 88% 2.1 mph SSW3.4 kmh SSW 7.0 mph11.3 kmh 30.02 in1016.6 mb 0.00 in0.0 mm 0.00 in0.0 mm 0.00 in0.0 mm
01:02 AM 71.5°F21.9°C 67.8°F19.9°C 88% 1.7 mph SW2.7 kmh SW 7.0 mph11.3 kmh 30.02 in1016.6 mb 0.00 in0.0 mm 0.00 in0.0 mm 0.00 in0.0 mm
01:07 AM 71.5°F21.9°C 67.8°F19.9°C 88% 1.8 mph SW2.9 kmh SW 5.0 mph8.0 kmh 30.02 in1016.6 mb 0.00 in0.0 mm 0.00 in0.0 mm 0.00 in0.0 mm
01:12 AM 71.5°F21.9°C 67.4°F19.7°C 87% 2.2 mph SW3.5 kmh SW 5.0 mph8.0 kmh 30.02 in1016.6 mb 0.00 in0.0 mm 0.00 in0.0 mm 0.00 in0.0 mm
01:17 AM 71.4°F21.9°C 67.3°F19.6°C 87% 1.9 mph SW3.1 kmh SW 7.0 mph11.3 kmh 30.02 in1016.6 mb 0.00 in0.0 mm 0.00 in0.0 mm 0.00 in0.0 mm
01:22 AM 71.4°F21.9°C 67.3°F19.6°C 87% 1.4 mph SW2.3 kmh SW 7.0 mph11.3 kmh 30.02 in1016.6 mb 0.00 in0.0 mm 0.00 in0.0 mm 0.00 in0.0 mm
01:27 AM 71.2°F21.8°C 67.1°F19.5°C 87% 1.2 mph SW1.9 kmh SW 7.0 mph11.3 kmh 30.02 in1016.6 mb 0.00 in0.0 mm 0.00 in0.0 mm 0.00 in0.0 mm
01:32 AM 71.1°F21.7°C 67.0°F19.4°C 87% 1.0 mph SW1.6 kmh SW 6.0 mph9.7 kmh 30.01 in1016.3 mb 0.00 in0.0 mm 0.00 in0.0 mm 0.00 in0.0 mm
01:38 AM 71.0°F21.7°C 67.3°F19.6°C 88% Calm Calm 4.0 mph6.4 kmh 30.01 in1016.3 mb 0.00 in0.0 mm 0.00 in0.0 mm 0.00 in0.0 mm
01:43 AM 70.8°F21.6°C 67.1°F19.5°C 88% 1.0 mph SW1.6 kmh SW 2.0 mph3.2 kmh 30.01 in1016.3 mb 0.00 in0.0 mm 0.00 in0.0 mm 0.00 in0.0 mm
01:48 AM 70.7°F21.5°C 67.0°F19.4°C 88% 1.0 mph SSW1.6 kmh SSW 2.0 mph3.2 kmh 30.01 in1016.3 mb 0.00 in0.0 mm 0.00 in0.0 mm 0.00 in0.0 mm
01:53 AM 70.6°F21.4°C 67.2°F19.6°C 89% Calm Calm 1.0 mph1.6 kmh 30.01 in1016.3 mb 0.00 in0.0 mm 0.00 in0.0 mm 0.00 in0.0 mm
01:58 AM 70.4°F21.3°C 67.0°F19.4°C 89% Calm Calm 1.0 mph1.6 kmh 30.01 in1016.3 mb 0.00 in0.0 mm 0.00 in0.0 mm 0.00 in0.0 mm
02:03 AM 70.3°F21.3°C 66.9°F19.4°C 89% Calm Calm 1.0 mph1.6 kmh 30.00 in1015.9 mb 0.00 in0.0 mm 0.00 in0.0 mm 0.00 in0.0 mm
02:09 AM 70.2°F21.2°C 67.1°F19.5°C 90% 1.0 mph SE1.6 kmh SE 3.0 mph4.8 kmh 30.00 in1015.9 mb 0.00 in0.0 mm 0.00 in0.0 mm 0.00 in0.0 mm
02:14 AM 70.1°F21.2°C 67.0°F19.4°C 90% 1.0 mph SSE1.6 kmh SSE 3.0 mph4.8 kmh 30.00 in1015.9 mb 0.00 in0.0 mm 0.00 in0.0 mm 0.00 in0.0 mm
02:19 AM 70.1°F21.2°C 67.0°F19.4°C 90% 1.0 mph SSE1.6 kmh SSE 3.0 mph4.8 kmh 30.00 in1015.9 mb 0.00 in0.0 mm 0.00 in0.0 mm 0.00 in0.0 mm
02:24 AM 70.0°F21.1°C 66.9°F19.4°C 90% 1.3 mph SE2.1 kmh SE 2.0 mph3.2 kmh 30.00 in1015.9 mb 0.00 in0.0 mm 0.00 in0.0 mm 0.00 in0.0 mm
02:29 AM 69.9°F21.1°C 66.8°F19.3°C 90% 1.0 mph SE1.6 kmh SE 2.0 mph3.2 kmh 30.00 in1015.9 mb 0.00 in0.0 mm 0.00 in0.0 mm 0.00 in0.0 mm
02:34 AM 69.9°F21.1°C 66.8°F19.3°C 90% 1.0 mph SE1.6 kmh SE 3.0 mph4.8 kmh 30.00 in1015.9 mb 0.00 in0.0 mm 0.00 in0.0 mm 0.00 in0.0 mm
02:38 AM 69.9°F21.1°C 66.8°F19.3°C 90% Calm Calm 3.0 mph4.8 kmh 30.00 in1015.9 mb 0.00 in0.0 mm 0.00 in0.0 mm 0.00 in0.0 mm
02:43 AM 69.8°F21.0°C 67.0°F19.4°C 91% Calm Calm 3.0 mph4.8 kmh 29.99 in1015.6 mb 0.00 in0.0 mm 0.00 in0.0 mm 0.00 in0.0 mm
02:49 AM 69.7°F20.9°C 66.9°F19.4°C 91% Calm Calm 3.0 mph4.8 kmh 29.99 in1015.6 mb 0.00 in0.0 mm 0.00 in0.0 mm 0.00 in0.0 mm
02:54 AM 69.7°F20.9°C 66.9°F19.4°C 91% 1.0 mph SE1.6 kmh SE 2.0 mph3.2 kmh 29.99 in1015.6 mb 0.00 in0.0 mm 0.00 in0.0 mm 0.00 in0.0 mm
02:59 AM 69.6°F20.9°C 66.8°F19.3°C 91% Calm Calm 2.0 mph3.2 kmh 29.99 in1015.6 mb 0.00 in0.0 mm 0.00 in0.0 mm 0.00 in0.0 mm
03:04 AM 69.6°F20.9°C 67.2°F19.6°C 92% Calm Calm 2.0 mph3.2 kmh 29.99 in1015.6 mb 0.00 in0.0 mm 0.00 in0.0 mm 0.00 in0.0 mm
03:09 AM 69.5°F20.8°C 67.0°F19.4°C 92% Calm Calm 2.0 mph3.2 kmh 29.99 in1015.6 mb 0.00 in0.0 mm 0.00 in0.0 mm 0.00 in0.0 mm
03:14 AM 69.4°F20.8°C 66.9°F19.4°C 92% Calm Calm -- 29.99 in1015.6 mb 0.00 in0.0 mm 0.00 in0.0 mm 0.00 in0.0 mm
03:20 AM 69.3°F20.7°C 66.8°F19.3°C 92% 1.0 mph SW1.6 kmh SW 4.0 mph6.4 kmh 29.98 in1015.2 mb 0.00 in0.0 mm 0.00 in0.0 mm 0.00 in0.0 mm
03:25 AM 69.2°F20.7°C 66.8°F19.3°C 92% Calm Calm 4.0 mph6.4 kmh 29.98 in1015.2 mb 0.00 in0.0 mm 0.00 in0.0 mm 0.00 in0.0 mm
03:30 AM 69.2°F20.7°C 66.8°F19.3°C 92% Calm Calm 4.0 mph6.4 kmh 29.98 in1015.2 mb 0.00 in0.0 mm 0.00 in0.0 mm 0.00 in0.0 mm
03:35 AM 69.1°F20.6°C 66.7°F19.3°C 92% 1.3 mph SW2.1 kmh SW 2.0 mph3.2 kmh 29.98 in1015.2 mb 0.00 in0.0 mm 0.00 in0.0 mm 0.00 in0.0 mm
03:40 AM 69.0°F20.6°C 66.9°F19.4°C 93% Calm Calm 2.0 mph3.2 kmh 29.98 in1015.2 mb 0.00 in0.0 mm 0.00 in0.0 mm 0.00 in0.0 mm
03:45 AM 69.0°F20.6°C 66.9°F19.4°C 93% 1.3 mph S2.1 kmh S 3.0 mph4.8 kmh 29.98 in1015.2 mb 0.00 in0.0 mm 0.00 in0.0 mm 0.00 in0.0 mm
03:50 AM 68.9°F20.5°C 66.8°F19.3°C 93% 1.0 mph SW1.6 kmh SW 3.0 mph4.8 kmh 29.98 in1015.2 mb 0.00 in0.0 mm 0.00 in0.0 mm 0.00 in0.0 mm
03:56 AM 68.8°F20.4°C 66.7°F19.3°C 93% 1.3 mph SW2.1 kmh SW 3.0 mph4.8 kmh 29.97 in1014.9 mb 0.00 in0.0 mm 0.00 in0.0 mm 0.00 in0.0 mm
04:01 AM 68.8°F20.4°C 66.7°F19.3°C 93% 1.2 mph SSW1.9 kmh SSW 3.0 mph4.8 kmh 29.97 in1014.9 mb 0.00 in0.0 mm 0.00 in0.0 mm 0.00 in0.0 mm
04:06 AM 68.7°F20.4°C 66.6°F19.2°C 93% 1.0 mph S1.6 kmh S 2.0 mph3.2 kmh 29.97 in1014.9 mb 0.00 in0.0 mm 0.00 in0.0 mm 0.00 in0.0 mm
04:11 AM 68.6°F20.3°C 66.5°F19.2°C 93% 1.0 mph S1.6 kmh S 2.0 mph3.2 kmh 29.97 in1014.9 mb 0.00 in0.0 mm 0.00 in0.0 mm 0.00 in0.0 mm
04:16 AM 68.6°F20.3°C 66.5°F19.2°C 93% 1.0 mph SSW1.6 kmh SSW 2.0 mph3.2 kmh 29.97 in1014.9 mb 0.00 in0.0 mm 0.00 in0.0 mm 0.00 in0.0 mm
04:21 AM 68.5°F20.3°C 66.4°F19.1°C 93% Calm Calm 2.0 mph3.2 kmh 29.96 in1014.6 mb 0.00 in0.0 mm 0.00 in0.0 mm 0.00 in0.0 mm
04:26 AM 68.4°F20.2°C 66.3°F19.1°C 93% 1.0 mph SSW1.6 kmh SSW 1.0 mph1.6 kmh 29.96 in1014.6 mb 0.00 in0.0 mm 0.00 in0.0 mm 0.00 in0.0 mm
04:32 AM 68.3°F20.2°C 66.2°F19.0°C 93% 1.4 mph SW2.3 kmh SW 2.0 mph3.2 kmh 29.96 in1014.6 mb 0.00 in0.0 mm 0.00 in0.0 mm 0.00 in0.0 mm
04:37 AM 68.2°F20.1°C 66.4°F19.1°C 94% 1.3 mph SW2.1 kmh SW 2.0 mph3.2 kmh 29.96 in1014.6 mb 0.00 in0.0 mm 0.00 in0.0 mm 0.00 in0.0 mm
04:42 AM 68.1°F20.1°C 66.3°F19.1°C 94% 1.2 mph SW1.9 kmh SW 2.0 mph3.2 kmh 29.96 in1014.6 mb 0.00 in0.0 mm 0.00 in0.0 mm 0.00 in0.0 mm
04:47 AM 68.0°F20.0°C 66.2°F19.0°C 94% 1.6 mph SW2.6 kmh SW 2.0 mph3.2 kmh 29.96 in1014.6 mb 0.00 in0.0 mm 0.00 in0.0 mm 0.00 in0.0 mm
04:52 AM 67.9°F19.9°C 66.1°F18.9°C 94% Calm Calm 2.0 mph3.2 kmh 29.95 in1014.2 mb 0.00 in0.0 mm 0.00 in0.0 mm 0.00 in0.0 mm
04:57 AM 67.8°F19.9°C 66.0°F18.9°C 94% 1.2 mph SE1.9 kmh SE 3.0 mph4.8 kmh 29.96 in1014.6 mb 0.00 in0.0 mm 0.00 in0.0 mm 0.00 in0.0 mm
05:03 AM 67.7°F19.8°C 65.9°F18.8°C 94% 1.4 mph SE2.3 kmh SE 3.0 mph4.8 kmh 29.96 in1014.6 mb 0.00 in0.0 mm 0.00 in0.0 mm 0.00 in0.0 mm
05:08 AM 67.7°F19.8°C 66.2°F19.0°C 95% 4.0 mph SE6.4 kmh SE 5.0 mph8.0 kmh 29.96 in1014.6 mb 0.00 in0.0 mm 0.00 in0.0 mm 0.00 in0.0 mm
05:13 AM 67.6°F19.8°C 66.1°F18.9°C 95% 1.0 mph SW1.6 kmh SW 5.0 mph8.0 kmh 29.96 in1014.6 mb 0.00 in0.0 mm 0.00 in0.0 mm 0.00 in0.0 mm
05:18 AM 67.6°F19.8°C 66.1°F18.9°C 95% 1.2 mph SE1.9 kmh SE 5.0 mph8.0 kmh 29.95 in1014.2 mb 0.00 in0.0 mm 0.00 in0.0 mm 0.00 in0.0 mm
05:23 AM 67.5°F19.7°C 66.0°F18.9°C 95% Calm Calm 5.0 mph8.0 kmh 29.96 in1014.6 mb 0.00 in0.0 mm 0.00 in0.0 mm 0.00 in0.0 mm
05:28 AM 67.5°F19.7°C 66.0°F18.9°C 95% 1.0 mph ESE1.6 kmh ESE 2.0 mph3.2 kmh 29.95 in1014.2 mb 0.00 in0.0 mm 0.00 in0.0 mm 0.00 in0.0 mm
05:33 AM 67.5°F19.7°C 66.0°F18.9°C 95% 1.0 mph SSE1.6 kmh SSE 2.0 mph3.2 kmh 29.95 in1014.2 mb 0.00 in0.0 mm 0.00 in0.0 mm 0.00 in0.0 mm
05:39 AM 67.5°F19.7°C 66.0°F18.9°C 95% 2.0 mph SE3.2 kmh SE 2.0 mph3.2 kmh 29.95 in1014.2 mb 0.00 in0.0 mm 0.00 in0.0 mm 0.00 in0.0 mm
05:44 AM 67.6°F19.8°C 66.1°F18.9°C 95% Calm Calm 2.0 mph3.2 kmh 29.95 in1014.2 mb 0.00 in0.0 mm 0.00 in0.0 mm 0.00 in0.0 mm
05:49 AM 67.6°F19.8°C 66.1°F18.9°C 95% 1.0 mph SW1.6 kmh SW 3.0 mph4.8 kmh 29.95 in1014.2 mb 0.00 in0.0 mm 0.00 in0.0 mm 0.00 in0.0 mm
05:54 AM 67.7°F19.8°C 66.2°F19.0°C 95% 1.0 mph ESE1.6 kmh ESE 3.0 mph4.8 kmh 29.94 in1013.9 mb 0.00 in0.0 mm 0.00 in0.0 mm 0.00 in0.0 mm
05:59 AM 67.8°F19.9°C 66.3°F19.1°C 95% 1.6 mph SE2.6 kmh SE 4.0 mph6.4 kmh 29.94 in1013.9 mb 0.00 in0.0 mm 0.00 in0.0 mm 0.00 in0.0 mm
06:04 AM 67.8°F19.9°C 66.3°F19.1°C 95% 1.6 mph SE2.6 kmh SE 4.0 mph6.4 kmh 29.94 in1013.9 mb 0.00 in0.0 mm 0.00 in0.0 mm 0.00 in0.0 mm
06:10 AM 67.9°F19.9°C 66.4°F19.1°C 95% 1.4 mph SE2.3 kmh SE 4.0 mph6.4 kmh 29.95 in1014.2 mb 0.00 in0.0 mm 0.00 in0.0 mm 0.00 in0.0 mm
06:15 AM 67.9°F19.9°C 66.4°F19.1°C 95% Calm Calm 4.0 mph6.4 kmh 29.95 in1014.2 mb 0.00 in0.0 mm 0.00 in0.0 mm 0.00 in0.0 mm
06:20 AM 67.9°F19.9°C 66.4°F19.1°C 95% 1.3 mph SSW2.1 kmh SSW 6.0 mph9.7 kmh 29.95 in1014.2 mb 0.00 in0.0 mm 0.00 in0.0 mm 0.00 in0.0 mm
06:25 AM 67.9°F19.9°C 66.4°F19.1°C 95% 1.6 mph SSE2.6 kmh SSE 6.0 mph9.7 kmh 29.95 in1014.2 mb 0.00 in0.0 mm 0.00 in0.0 mm 0.00 in0.0 mm
06:30 AM 68.0°F20.0°C 66.5°F19.2°C 95% 1.9 mph SSW3.1 kmh SSW 6.0 mph9.7 kmh 29.95 in1014.2 mb 0.00 in0.0 mm 0.00 in0.0 mm 0.00 in0.0 mm
06:35 AM 68.0°F20.0°C 66.5°F19.2°C 95% 1.0 mph SSE1.6 kmh SSE 6.0 mph9.7 kmh 29.95 in1014.2 mb 0.00 in0.0 mm 0.00 in0.0 mm 0.00 in0.0 mm
06:40 AM 68.0°F20.0°C 66.5°F19.2°C 95% 2.4 mph S3.9 kmh S 5.0 mph8.0 kmh 29.95 in1014.2 mb 0.00 in0.0 mm 0.00 in0.0 mm 0.00 in0.0 mm
06:46 AM 68.0°F20.0°C 66.8°F19.3°C 96% 1.6 mph S2.6 kmh S 5.0 mph8.0 kmh 29.95 in1014.2 mb 0.00 in0.0 mm 0.00 in0.0 mm 0.00 in0.0 mm
06:51 AM 68.0°F20.0°C 66.8°F19.3°C 96% 1.7 mph SSE2.7 kmh SSE 6.0 mph9.7 kmh 29.95 in1014.2 mb 0.00 in0.0 mm 0.00 in0.0 mm 0.00 in0.0 mm
06:56 AM 68.1°F20.1°C 66.9°F19.4°C 96% 2.2 mph S3.5 kmh S 6.0 mph9.7 kmh 29.95 in1014.2 mb 0.00 in0.0 mm 0.00 in0.0 mm 0.00 in0.0 mm
07:01 AM 68.1°F20.1°C 66.9°F19.4°C 96% 1.6 mph S2.6 kmh S 6.0 mph9.7 kmh 29.95 in1014.2 mb 0.00 in0.0 mm 0.00 in0.0 mm 0.00 in0.0 mm
07:06 AM 68.1°F20.1°C 66.9°F19.4°C 96% 1.8 mph S2.9 kmh S 6.0 mph9.7 kmh 29.95 in1014.2 mb 0.00 in0.0 mm 0.00 in0.0 mm 0.00 in0.0 mm
07:11 AM 68.1°F20.1°C 66.9°F19.4°C 96% 2.2 mph SSE3.5 kmh SSE 6.0 mph9.7 kmh 29.95 in1014.2 mb 0.00 in0.0 mm 0.00 in0.0 mm 0.00 in0.0 mm
07:17 AM 68.1°F20.1°C 66.9°F19.4°C 96% 1.8 mph SSW2.9 kmh SSW 6.0 mph9.7 kmh 29.95 in1014.2 mb 0.00 in0.0 mm 0.00 in0.0 mm 0.00 in0.0 mm
07:22 AM 68.1°F20.1°C 66.9°F19.4°C 96% 2.8 mph S4.5 kmh S 6.0 mph9.7 kmh 29.95 in1014.2 mb 0.00 in0.0 mm 0.00 in0.0 mm 0.00 in0.0 mm
07:27 AM 68.1°F20.1°C 66.9°F19.4°C 96% 2.0 mph S3.2 kmh S 6.0 mph9.7 kmh 29.95 in1014.2 mb 0.00 in0.0 mm 0.00 in0.0 mm 0.00 in0.0 mm
07:32 AM 68.0°F20.0°C 66.8°F19.3°C 96% 3.2 mph S5.1 kmh S 8.0 mph12.9 kmh 29.96 in1014.6 mb 0.00 in0.0 mm 0.00 in0.0 mm 0.00 in0.0 mm
07:37 AM 68.1°F20.1°C 66.9°F19.4°C 96% 1.7 mph SW2.7 kmh SW 8.0 mph12.9 kmh 29.97 in1014.9 mb 0.00 in0.0 mm 0.00 in0.0 mm 0.00 in0.0 mm
07:42 AM 68.1°F20.1°C 66.9°F19.4°C 96% 2.0 mph SW3.2 kmh SW 8.0 mph12.9 kmh 29.97 in1014.9 mb 0.00 in0.0 mm 0.00 in0.0 mm 0.00 in0.0 mm
07:47 AM 68.1°F20.1°C 66.9°F19.4°C 96% 2.4 mph SW3.9 kmh SW 8.0 mph12.9 kmh 29.97 in1014.9 mb 0.00 in0.0 mm 0.00 in0.0 mm 0.00 in0.0 mm
07:53 AM 68.1°F20.1°C 66.9°F19.4°C 96% 2.1 mph SW3.4 kmh SW 6.0 mph9.7 kmh 29.97 in1014.9 mb 0.00 in0.0 mm 0.00 in0.0 mm 0.00 in0.0 mm
07:58 AM 68.2°F20.1°C 67.0°F19.4°C 96% 1.2 mph WSW1.9 kmh WSW 6.0 mph9.7 kmh 29.97 in1014.9 mb 0.00 in0.0 mm 0.00 in0.0 mm 0.00 in0.0 mm
08:03 AM 68.3°F20.2°C 67.1°F19.5°C 96% 2.2 mph S3.5 kmh S 7.0 mph11.3 kmh 29.97 in1014.9 mb 0.00 in0.0 mm 0.00 in0.0 mm 0.00 in0.0 mm
08:08 AM 68.4°F20.2°C 67.2°F19.6°C 96% 1.9 mph SW3.1 kmh SW 7.0 mph11.3 kmh 29.97 in1014.9 mb 0.00 in0.0 mm 0.00 in0.0 mm 0.00 in0.0 mm
08:13 AM 68.4°F20.2°C 67.2°F19.6°C 96% 1.5 mph S2.4 kmh S 7.0 mph11.3 kmh 29.97 in1014.9 mb 0.00 in0.0 mm 0.00 in0.0 mm 0.00 in0.0 mm
08:18 AM 68.6°F20.3°C 67.4°F19.7°C 96% 1.0 mph SW1.6 kmh SW 7.0 mph11.3 kmh 29.97 in1014.9 mb 0.00 in0.0 mm 0.00 in0.0 mm 0.00 in0.0 mm
08:23 AM 68.8°F20.4°C 67.6°F19.8°C 96% 1.0 mph SW1.6 kmh SW 7.0 mph11.3 kmh 29.97 in1014.9 mb 0.00 in0.0 mm 0.00 in0.0 mm 0.00 in0.0 mm
08:29 AM 69.0°F20.6°C 67.8°F19.9°C 96% 1.3 mph S2.1 kmh S 5.0 mph8.0 kmh 29.97 in1014.9 mb 0.00 in0.0 mm 0.00 in0.0 mm 0.00 in0.0 mm
08:33 AM 69.2°F20.7°C 67.7°F19.8°C 95% 1.5 mph SSW2.4 kmh SSW 3.0 mph4.8 kmh 29.97 in1014.9 mb 0.00 in0.0 mm 0.00 in0.0 mm 0.00 in0.0 mm
08:38 AM 69.5°F20.8°C 68.0°F20.0°C 95% 1.3 mph SSW2.1 kmh SSW 3.0 mph4.8 kmh 29.97 in1014.9 mb 0.00 in0.0 mm 0.00 in0.0 mm 0.00 in0.0 mm
08:43 AM 69.7°F20.9°C 68.2°F20.1°C 95% 1.2 mph S1.9 kmh S 4.0 mph6.4 kmh 29.97 in1014.9 mb 0.00 in0.0 mm 0.00 in0.0 mm 0.00 in0.0 mm
08:48 AM 69.9°F21.1°C 68.1°F20.1°C 94% 1.5 mph S2.4 kmh S 5.0 mph8.0 kmh 29.97 in1014.9 mb 0.00 in0.0 mm 0.00 in0.0 mm 0.00 in0.0 mm
08:53 AM 70.3°F21.3°C 68.5°F20.3°C 94% 1.4 mph SW2.3 kmh SW 5.0 mph8.0 kmh 29.97 in1014.9 mb 0.00 in0.0 mm 0.00 in0.0 mm 0.00 in0.0 mm
08:58 AM 70.8°F21.6°C 68.6°F20.3°C 93% 1.4 mph SE2.3 kmh SE 5.0 mph8.0 kmh 29.97 in1014.9 mb 0.00 in0.0 mm 0.00 in0.0 mm 0.00 in0.0 mm
09:04 AM 71.2°F21.8°C 68.7°F20.4°C 92% 2.1 mph SW3.4 kmh SW 5.0 mph8.0 kmh 29.97 in1014.9 mb 0.00 in0.0 mm 0.00 in0.0 mm 0.00 in0.0 mm
09:09 AM 71.4°F21.9°C 68.6°F20.3°C 91% 1.5 mph SW2.4 kmh SW 5.0 mph8.0 kmh 29.97 in1014.9 mb 0.00 in0.0 mm 0.00 in0.0 mm 0.00 in0.0 mm
09:14 AM 71.5°F21.9°C 68.7°F20.4°C 91% 3.6 mph SW5.8 kmh SW 7.0 mph11.3 kmh 29.98 in1015.2 mb 0.00 in0.0 mm 0.00 in0.0 mm 0.00 in0.0 mm
09:19 AM 71.8°F22.1°C 69.0°F20.6°C 91% 1.0 mph S1.6 kmh S 7.0 mph11.3 kmh 29.97 in1014.9 mb 0.00 in0.0 mm 0.00 in0.0 mm 0.00 in0.0 mm
09:24 AM 72.2°F22.3°C 69.4°F20.8°C 91% 1.8 mph SE2.9 kmh SE 7.0 mph11.3 kmh 29.97 in1014.9 mb 0.00 in0.0 mm 0.00 in0.0 mm 0.00 in0.0 mm
09:29 AM 72.3°F22.4°C 69.2°F20.7°C 90% 1.3 mph SE2.1 kmh SE 7.0 mph11.3 kmh 29.97 in1014.9 mb 0.00 in0.0 mm 0.00 in0.0 mm 0.00 in0.0 mm
09:35 AM 72.2°F22.3°C 68.8°F20.4°C 89% 1.5 mph SSW2.4 kmh SSW 4.0 mph6.4 kmh 29.97 in1014.9 mb 0.00 in0.0 mm 0.00 in0.0 mm 0.00 in0.0 mm
09:40 AM 72.2°F22.3°C 69.1°F20.6°C 90% 1.6 mph SW2.6 kmh SW 4.0 mph6.4 kmh 29.97 in1014.9 mb 0.00 in0.0 mm 0.00 in0.0 mm 0.00 in0.0 mm
09:45 AM 72.3°F22.4°C 68.9°F20.5°C 89% 1.4 mph SSW2.3 kmh SSW 4.0 mph6.4 kmh 29.97 in1014.9 mb 0.00 in0.0 mm 0.00 in0.0 mm 0.00 in0.0 mm
09:50 AM 72.4°F22.4°C 69.3°F20.7°C 90% 1.0 mph SW1.6 kmh SW 5.0 mph8.0 kmh 29.97 in1014.9 mb 0.00 in0.0 mm 0.00 in0.0 mm 0.00 in0.0 mm
09:55 AM 72.5°F22.5°C 69.1°F20.6°C 89% 1.7 mph SW2.7 kmh SW 5.0 mph8.0 kmh 29.98 in1015.2 mb 0.00 in0.0 mm 0.00 in0.0 mm 0.00 in0.0 mm
10:00 AM 72.7°F22.6°C 69.3°F20.7°C 89% Calm Calm 5.0 mph8.0 kmh 29.98 in1015.2 mb 0.00 in0.0 mm 0.00 in0.0 mm 0.00 in0.0 mm
10:05 AM 72.9°F22.7°C 69.5°F20.8°C 89% 1.3 mph E2.1 kmh E 5.0 mph8.0 kmh 29.98 in1015.2 mb 0.00 in0.0 mm 0.00 in0.0 mm 0.00 in0.0 mm
10:11 AM 73.0°F22.8°C 69.6°F20.9°C 89% 1.5 mph S2.4 kmh S 5.0 mph8.0 kmh 29.98 in1015.2 mb 0.00 in0.0 mm 0.00 in0.0 mm 0.00 in0.0 mm
10:16 AM 73.3°F22.9°C 69.9°F21.1°C 89% 2.0 mph SW3.2 kmh SW 5.0 mph8.0 kmh 29.98 in1015.2 mb 0.00 in0.0 mm 0.00 in0.0 mm 0.00 in0.0 mm
10:21 AM 73.6°F23.1°C 69.8°F21.0°C 88% 1.5 mph S2.4 kmh S 5.0 mph8.0 kmh 29.98 in1015.2 mb 0.00 in0.0 mm 0.00 in0.0 mm 0.00 in0.0 mm
10:26 AM 73.8°F23.2°C 70.0°F21.1°C 88% Calm Calm 5.0 mph8.0 kmh 29.98 in1015.2 mb 0.00 in0.0 mm 0.00 in0.0 mm 0.00 in0.0 mm
10:31 AM 74.3°F23.5°C 70.2°F21.2°C 87% 1.0 mph S1.6 kmh S 4.0 mph6.4 kmh 29.98 in1015.2 mb 0.00 in0.0 mm 0.00 in0.0 mm 0.00 in0.0 mm
10:36 AM 75.0°F23.9°C 70.2°F21.2°C 85% 2.9 mph SW4.7 kmh SW 5.0 mph8.0 kmh 29.98 in1015.2 mb 0.00 in0.0 mm 0.00 in0.0 mm 0.00 in0.0 mm
10:41 AM 75.2°F24.0°C 70.8°F21.6°C 86% 1.1 mph SE1.8 kmh SE 5.0 mph8.0 kmh 29.98 in1015.2 mb 0.00 in0.0 mm 0.00 in0.0 mm 0.00 in0.0 mm
10:47 AM 75.6°F24.2°C 70.1°F21.2°C 83% 3.1 mph SW5.0 kmh SW 6.0 mph9.7 kmh 29.98 in1015.2 mb 0.00 in0.0 mm 0.00 in0.0 mm 0.00 in0.0 mm
10:52 AM 75.7°F24.3°C 70.2°F21.2°C 83% 3.2 mph SW5.1 kmh SW 9.0 mph14.5 kmh 29.98 in1015.2 mb 0.00 in0.0 mm 0.00 in0.0 mm 0.00 in0.0 mm
10:57 AM 76.0°F24.4°C 70.9°F21.6°C 84% 3.7 mph SSW6.0 kmh SSW 9.0 mph14.5 kmh 29.98 in1015.2 mb 0.00 in0.0 mm 0.00 in0.0 mm 0.00 in0.0 mm
11:02 AM 76.1°F24.5°C 70.6°F21.4°C 83% 2.6 mph SW4.2 kmh SW 9.0 mph14.5 kmh 29.98 in1015.2 mb 0.00 in0.0 mm 0.00 in0.0 mm 0.00 in0.0 mm
11:07 AM 76.4°F24.7°C 70.6°F21.4°C 82% 2.6 mph SW4.2 kmh SW 9.0 mph14.5 kmh 29.98 in1015.2 mb 0.00 in0.0 mm 0.00 in0.0 mm 0.00 in0.0 mm
11:12 AM 76.9°F24.9°C 71.1°F21.7°C 82% 1.8 mph WSW2.9 kmh WSW 9.0 mph14.5 kmh 29.98 in1015.2 mb 0.00 in0.0 mm 0.00 in0.0 mm 0.00 in0.0 mm
11:18 AM 77.8°F25.4°C 71.1°F21.7°C 80% 2.6 mph S4.2 kmh S 8.0 mph12.9 kmh 29.98 in1015.2 mb 0.00 in0.0 mm 0.00 in0.0 mm 0.00 in0.0 mm
11:23 AM 78.6°F25.9°C 72.0°F22.2°C 80% 1.2 mph SE1.9 kmh SE 8.0 mph12.9 kmh 29.97 in1014.9 mb 0.00 in0.0 mm 0.00 in0.0 mm 0.00 in0.0 mm
11:28 AM 79.3°F26.3°C 71.6°F22.0°C 77% 2.5 mph SSE4.0 kmh SSE 6.0 mph9.7 kmh 29.97 in1014.9 mb 0.00 in0.0 mm 0.00 in0.0 mm 0.00 in0.0 mm
11:33 AM 79.6°F26.4°C 71.5°F21.9°C 76% 2.3 mph SW3.7 kmh SW 8.0 mph12.9 kmh 29.97 in1014.9 mb 0.00 in0.0 mm 0.00 in0.0 mm 0.00 in0.0 mm
11:38 AM 79.6°F26.4°C 71.9°F22.2°C 77% 2.8 mph S4.5 kmh S 8.0 mph12.9 kmh 29.97 in1014.9 mb 0.00 in0.0 mm 0.00 in0.0 mm 0.00 in0.0 mm
11:43 AM 80.2°F26.8°C 72.1°F22.3°C 76% 1.4 mph S2.3 kmh S 9.0 mph14.5 kmh 29.97 in1014.9 mb 0.00 in0.0 mm 0.00 in0.0 mm 0.00 in0.0 mm
11:48 AM 80.0°F26.7°C 71.2°F21.8°C 74% 3.9 mph SW6.3 kmh SW 9.0 mph14.5 kmh 29.97 in1014.9 mb 0.00 in0.0 mm 0.00 in0.0 mm 0.00 in0.0 mm
11:54 AM 79.5°F26.4°C 70.9°F21.6°C 75% 3.5 mph SW5.6 kmh SW 9.0 mph14.5 kmh 29.97 in1014.9 mb 0.00 in0.0 mm 0.00 in0.0 mm 0.00 in0.0 mm
11:59 AM 79.8°F26.6°C 71.7°F22.1°C 76% 2.3 mph SW3.7 kmh SW 9.0 mph14.5 kmh 29.97 in1014.9 mb 0.00 in0.0 mm 0.00 in0.0 mm 0.00 in0.0 mm
12:04 PM 80.2°F26.8°C 71.3°F21.8°C 74% 2.5 mph SW4.0 kmh SW 9.0 mph14.5 kmh 29.97 in1014.9 mb 0.00 in0.0 mm 0.00 in0.0 mm 0.00 in0.0 mm
12:09 PM 80.2°F26.8°C 71.7°F22.1°C 75% 2.2 mph SW3.5 kmh SW 9.0 mph14.5 kmh 29.97 in1014.9 mb 0.00 in0.0 mm 0.00 in0.0 mm 0.00 in0.0 mm
12:14 PM 80.3°F26.8°C 71.4°F21.9°C 74% 2.9 mph WSW4.7 kmh WSW 10.0 mph16.1 kmh 29.97 in1014.9 mb 0.00 in0.0 mm 0.00 in0.0 mm 0.00 in0.0 mm
12:19 PM 79.9°F26.6°C 71.3°F21.8°C 75% 2.3 mph SE3.7 kmh SE 10.0 mph16.1 kmh 29.97 in1014.9 mb 0.00 in0.0 mm 0.00 in0.0 mm 0.00 in0.0 mm
12:25 PM 80.0°F26.7°C 71.0°F21.7°C 74% 4.2 mph SW6.8 kmh SW 10.0 mph16.1 kmh 29.96 in1014.6 mb 0.00 in0.0 mm 0.00 in0.0 mm 0.00 in0.0 mm
12:30 PM 80.0°F26.7°C 71.9°F22.2°C 76% 2.4 mph WSW3.9 kmh WSW 12.0 mph19.3 kmh 29.96 in1014.6 mb 0.00 in0.0 mm 0.00 in0.0 mm 0.00 in0.0 mm
12:35 PM 80.1°F26.7°C 71.6°F22.0°C 75% 1.6 mph S2.6 kmh S 12.0 mph19.3 kmh 29.96 in1014.6 mb 0.00 in0.0 mm 0.00 in0.0 mm 0.00 in0.0 mm
12:40 PM 80.3°F26.8°C 71.4°F21.9°C 74% 1.8 mph S2.9 kmh S 12.0 mph19.3 kmh 29.96 in1014.6 mb 0.00 in0.0 mm 0.00 in0.0 mm 0.00 in0.0 mm
12:45 PM 80.5°F26.9°C 71.2°F21.8°C 73% 3.3 mph SSW5.3 kmh SSW 9.0 mph14.5 kmh 29.95 in1014.2 mb 0.00 in0.0 mm 0.00 in0.0 mm 0.00 in0.0 mm
12:50 PM 80.2°F26.8°C 70.8°F21.6°C 73% 2.8 mph SSW4.5 kmh SSW 9.0 mph14.5 kmh 29.95 in1014.2 mb 0.00 in0.0 mm 0.00 in0.0 mm 0.00 in0.0 mm
12:55 PM 80.2°F26.8°C 71.7°F22.1°C 75% 1.8 mph WSW2.9 kmh WSW 9.0 mph14.5 kmh 29.95 in1014.2 mb 0.00 in0.0 mm 0.00 in0.0 mm 0.00 in0.0 mm
01:01 PM 80.5°F26.9°C 71.6°F22.0°C 74% 1.9 mph SW3.1 kmh SW 9.0 mph14.5 kmh 29.95 in1014.2 mb 0.00 in0.0 mm 0.00 in0.0 mm 0.00 in0.0 mm
01:06 PM 80.8°F27.1°C 71.9°F22.2°C 74% 2.0 mph SW3.2 kmh SW 8.0 mph12.9 kmh 29.95 in1014.2 mb 0.00 in0.0 mm 0.00 in0.0 mm 0.00 in0.0 mm
01:15 PM 81.6°F27.6°C 71.9°F22.2°C 72% 3.0 mph SW4.8 kmh SW 6.0 mph9.7 kmh 29.94 in1013.9 mb 0.00 in0.0 mm 0.00 in0.0 mm 0.00 in0.0 mm
01:20 PM 81.0°F27.2°C 70.7°F21.5°C 71% 1.8 mph SW2.9 kmh SW 7.0 mph11.3 kmh 29.94 in1013.9 mb 0.00 in0.0 mm 0.00 in0.0 mm 0.00 in0.0 mm
01:25 PM 80.5°F26.9°C 70.9°F21.6°C 72% 2.0 mph SW3.2 kmh SW 9.0 mph14.5 kmh 29.93 in1013.5 mb 0.00 in0.0 mm 0.00 in0.0 mm 0.00 in0.0 mm
01:30 PM 80.2°F26.8°C 71.0°F21.7°C 73% 1.6 mph WSW2.6 kmh WSW 9.0 mph14.5 kmh 29.93 in1013.5 mb 0.00 in0.0 mm 0.00 in0.0 mm 0.00 in0.0 mm
01:35 PM 80.0°F26.7°C 71.2°F21.8°C 74% 1.9 mph SSW3.1 kmh SSW 9.0 mph14.5 kmh 29.93 in1013.5 mb 0.00 in0.0 mm 0.00 in0.0 mm 0.00 in0.0 mm
01:40 PM 80.4°F26.9°C 71.3°F21.8°C 74% 2.2 mph SW3.5 kmh SW 9.0 mph14.5 kmh 29.93 in1013.5 mb 0.00 in0.0 mm 0.00 in0.0 mm 0.00 in0.0 mm
01:45 PM 81.1°F27.3°C 71.8°F22.1°C 73% 2.0 mph WSW3.2 kmh WSW 6.0 mph9.7 kmh 29.93 in1013.5 mb 0.00 in0.0 mm 0.00 in0.0 mm 0.00 in0.0 mm
01:50 PM 81.4°F27.4°C 71.7°F22.1°C 72% 2.0 mph SSW3.2 kmh SSW 8.0 mph12.9 kmh 29.93 in1013.5 mb 0.00 in0.0 mm 0.00 in0.0 mm 0.00 in0.0 mm
01:55 PM 81.4°F27.4°C 71.3°F21.8°C 71% 1.1 mph SSE1.8 kmh SSE 8.0 mph12.9 kmh 29.92 in1013.2 mb 0.00 in0.0 mm 0.00 in0.0 mm 0.00 in0.0 mm
02:00 PM 81.7°F27.6°C 71.6°F22.0°C 71% 2.1 mph SE3.4 kmh SE 8.0 mph12.9 kmh 29.92 in1013.2 mb 0.00 in0.0 mm 0.00 in0.0 mm 0.00 in0.0 mm
02:05 PM 81.8°F27.7°C 71.5°F21.9°C 71% 2.0 mph SW3.2 kmh SW 8.0 mph12.9 kmh 29.92 in1013.2 mb 0.00 in0.0 mm 0.00 in0.0 mm 0.00 in0.0 mm
02:10 PM 81.6°F27.6°C 71.1°F21.7°C 70% 1.9 mph SW3.1 kmh SW 6.0 mph9.7 kmh 29.92 in1013.2 mb 0.00 in0.0 mm 0.00 in0.0 mm 0.00 in0.0 mm
02:15 PM 81.6°F27.6°C 71.9°F22.2°C 72% 2.6 mph SW4.2 kmh SW 5.0 mph8.0 kmh 29.91 in1012.9 mb 0.00 in0.0 mm 0.00 in0.0 mm 0.00 in0.0 mm
02:20 PM 81.7°F27.6°C 71.6°F22.0°C 71% 2.0 mph SSW3.2 kmh SSW 5.0 mph8.0 kmh 29.91 in1012.9 mb 0.00 in0.0 mm 0.00 in0.0 mm 0.00 in0.0 mm
02:25 PM 82.4°F28.0°C 72.7°F22.6°C 72% 1.3 mph SW2.1 kmh SW 5.0 mph8.0 kmh 29.90 in1012.5 mb 0.00 in0.0 mm 0.00 in0.0 mm 0.00 in0.0 mm
02:30 PM 82.5°F28.1°C 72.0°F22.2°C 70% 1.9 mph SW3.1 kmh SW 10.0 mph16.1 kmh 29.90 in1012.5 mb 0.00 in0.0 mm 0.00 in0.0 mm 0.00 in0.0 mm
02:35 PM 82.6°F28.1°C 71.2°F21.8°C 68% 3.5 mph SW5.6 kmh SW 10.0 mph16.1 kmh 29.90 in1012.5 mb 0.00 in0.0 mm 0.00 in0.0 mm 0.00 in0.0 mm
02:40 PM 82.3°F27.9°C 71.5°F21.9°C 70% 1.4 mph SSW2.3 kmh SSW 10.0 mph16.1 kmh 29.89 in1012.2 mb 0.00 in0.0 mm 0.00 in0.0 mm 0.00 in0.0 mm
02:45 PM 82.2°F27.9°C 71.3°F21.8°C 69% 2.3 mph S3.7 kmh S 10.0 mph16.1 kmh 29.89 in1012.2 mb 0.00 in0.0 mm 0.00 in0.0 mm 0.00 in0.0 mm
02:50 PM 81.9°F27.7°C 71.8°F22.1°C 71% 2.5 mph WSW4.0 kmh WSW 8.0 mph12.9 kmh 29.88 in1011.9 mb 0.00 in0.0 mm 0.00 in0.0 mm 0.00 in0.0 mm
02:55 PM 81.7°F27.6°C 72.4°F22.4°C 73% 1.0 mph SE1.6 kmh SE 6.0 mph9.7 kmh 29.88 in1011.9 mb 0.00 in0.0 mm 0.00 in0.0 mm 0.00 in0.0 mm
03:00 PM 81.4°F27.4°C 71.9°F22.2°C 73% 2.9 mph SSW4.7 kmh SSW 6.0 mph9.7 kmh 29.88 in1011.9 mb 0.00 in0.0 mm 0.00 in0.0 mm 0.00 in0.0 mm
03:05 PM 81.3°F27.4°C 73.2°F22.9°C 76% 1.9 mph S3.1 kmh S 6.0 mph9.7 kmh 29.88 in1011.9 mb 0.00 in0.0 mm 0.00 in0.0 mm 0.00 in0.0 mm
03:10 PM 81.5°F27.5°C 73.8°F23.2°C 77% 1.0 mph S1.6 kmh S 6.0 mph9.7 kmh 29.87 in1011.5 mb 0.00 in0.0 mm 0.00 in0.0 mm 0.00 in0.0 mm
03:15 PM 81.3°F27.4°C 72.8°F22.7°C 75% 2.1 mph SE3.4 kmh SE 6.0 mph9.7 kmh 29.87 in1011.5 mb 0.00 in0.0 mm 0.00 in0.0 mm 0.00 in0.0 mm
03:20 PM 81.1°F27.3°C 73.0°F22.8°C 76% Calm Calm 4.0 mph6.4 kmh 29.87 in1011.5 mb 0.00 in0.0 mm 0.00 in0.0 mm 0.00 in0.0 mm
03:25 PM 81.2°F27.3°C 73.1°F22.8°C 76% 1.0 mph SE1.6 kmh SE 4.0 mph6.4 kmh 29.87 in1011.5 mb 0.00 in0.0 mm 0.00 in0.0 mm 0.00 in0.0 mm
03:30 PM 81.4°F27.4°C 74.0°F23.3°C 78% Calm Calm 4.0 mph6.4 kmh 29.86 in1011.2 mb 0.00 in0.0 mm 0.00 in0.0 mm 0.00 in0.0 mm
03:35 PM 81.4°F27.4°C 73.7°F23.2°C 77% 1.0 mph ENE1.6 kmh ENE 1.0 mph1.6 kmh 29.85 in1010.8 mb 0.00 in0.0 mm 0.00 in0.0 mm 0.00 in0.0 mm
03:40 PM 81.3°F27.4°C 73.6°F23.1°C 77% 2.1 mph SW3.4 kmh SW 4.0 mph6.4 kmh 29.86 in1011.2 mb 0.00 in0.0 mm 0.00 in0.0 mm 0.00 in0.0 mm
03:45 PM 80.6°F27.0°C 72.3°F22.4°C 76% 2.2 mph SSW3.5 kmh SSW 6.0 mph9.7 kmh 29.85 in1010.8 mb 0.00 in0.0 mm 0.00 in0.0 mm 0.00 in0.0 mm
03:50 PM 79.9°F26.6°C 71.8°F22.1°C 76% 3.6 mph SW5.8 kmh SW 8.0 mph12.9 kmh 29.85 in1010.8 mb 0.00 in0.0 mm 0.00 in0.0 mm 0.00 in0.0 mm
03:55 PM 79.4°F26.3°C 71.9°F22.2°C 78% 1.3 mph SW2.1 kmh SW 8.0 mph12.9 kmh 29.85 in1010.8 mb 0.00 in0.0 mm 0.00 in0.0 mm 0.00 in0.0 mm
04:00 PM 78.9°F26.1°C 72.7°F22.6°C 81% 2.6 mph SSE4.2 kmh SSE 8.0 mph12.9 kmh 29.85 in1010.8 mb 0.00 in0.0 mm 0.00 in0.0 mm 0.00 in0.0 mm
04:05 PM 77.4°F25.2°C 71.5°F21.9°C 82% 1.3 mph SE2.1 kmh SE 8.0 mph12.9 kmh 29.85 in1010.8 mb 0.00 in0.0 mm 0.00 in0.0 mm 0.00 in0.0 mm
04:10 PM 76.5°F24.7°C 71.4°F21.9°C 84% 1.0 mph WSW1.6 kmh WSW 7.0 mph11.3 kmh 29.85 in1010.8 mb 0.00 in0.0 mm 0.00 in0.0 mm 0.00 in0.0 mm
04:15 PM 75.7°F24.3°C 70.6°F21.4°C 84% 2.0 mph S3.2 kmh S 7.0 mph11.3 kmh 29.85 in1010.8 mb 0.01 in0.3 mm 0.12 in3.0 mm 0.01 in0.3 mm
04:20 PM 74.0°F23.3°C 69.2°F20.7°C 85% 4.9 mph SSW7.9 kmh SSW 13.0 mph20.9 kmh 29.86 in1011.2 mb 0.02 in0.5 mm 0.12 in3.0 mm 0.02 in0.5 mm
04:25 PM 72.4°F22.4°C 68.6°F20.3°C 88% 4.5 mph S7.2 kmh S 13.0 mph20.9 kmh 29.86 in1011.2 mb 0.05 in1.3 mm 0.36 in9.1 mm 0.05 in1.3 mm
04:30 PM 71.0°F21.7°C 67.3°F19.6°C 88% 5.8 mph S9.3 kmh S 18.0 mph29.0 kmh 29.87 in1011.5 mb 0.06 in1.5 mm 0.12 in3.0 mm 0.06 in1.5 mm
04:35 PM 70.0°F21.1°C 66.9°F19.4°C 90% 4.3 mph SW6.9 kmh SW 18.0 mph29.0 kmh 29.89 in1012.2 mb 0.19 in4.8 mm 1.56 in39.6 mm 0.19 in4.8 mm
04:40 PM 69.3°F20.7°C 66.9°F19.4°C 92% 6.2 mph SSW10.0 kmh SSW 19.0 mph30.6 kmh 29.90 in1012.5 mb 0.31 in7.9 mm 1.44 in36.6 mm 0.31 in7.9 mm
04:45 PM 68.8°F20.4°C 66.7°F19.3°C 93% 3.6 mph SW5.8 kmh SW 22.0 mph35.4 kmh 29.90 in1012.5 mb 0.52 in13.2 mm 2.52 in64.0 mm 0.52 in13.2 mm
04:50 PM 68.3°F20.2°C 66.5°F19.2°C 94% 2.5 mph SSE4.0 kmh SSE 22.0 mph35.4 kmh 29.88 in1011.9 mb 0.62 in15.7 mm 1.20 in30.5 mm 0.62 in15.7 mm
04:55 PM 67.7°F19.8°C 65.9°F18.8°C 94% 2.9 mph SE4.7 kmh SE 22.0 mph35.4 kmh 29.87 in1011.5 mb 0.62 in15.7 mm 0.00 in0.0 mm 0.62 in15.7 mm
05:00 PM 67.8°F19.9°C 66.3°F19.1°C 95% 1.2 mph S1.9 kmh S 22.0 mph35.4 kmh 29.86 in1011.2 mb 0.62 in15.7 mm 0.00 in0.0 mm 0.62 in15.7 mm
05:05 PM 67.9°F19.9°C 66.4°F19.1°C 95% Calm Calm 9.0 mph14.5 kmh 29.86 in1011.2 mb 0.62 in15.7 mm 0.00 in0.0 mm 0.62 in15.7 mm
05:10 PM 68.0°F20.0°C 66.5°F19.2°C 95% Calm Calm 9.0 mph14.5 kmh 29.86 in1011.2 mb 0.62 in15.7 mm 0.00 in0.0 mm 0.62 in15.7 mm
05:15 PM 68.1°F20.1°C 66.6°F19.2°C 95% 1.4 mph SW2.3 kmh SW 3.0 mph4.8 kmh 29.85 in1010.8 mb 0.61 in15.5 mm 0.00 in0.0 mm 0.62 in15.7 mm
05:20 PM 68.3°F20.2°C 66.8°F19.3°C 95% 1.0 mph SW1.6 kmh SW 3.0 mph4.8 kmh 29.85 in1010.8 mb 0.59 in15.0 mm 0.00 in0.0 mm 0.62 in15.7 mm
05:25 PM 68.5°F20.3°C 67.0°F19.4°C 95% 1.0 mph SW1.6 kmh SW 3.0 mph4.8 kmh 29.84 in1010.5 mb 0.57 in14.5 mm 0.00 in0.0 mm 0.62 in15.7 mm
05:31 PM 68.6°F20.3°C 67.1°F19.5°C 95% 1.8 mph SW2.9 kmh SW 5.0 mph8.0 kmh 29.84 in1010.5 mb 0.56 in14.2 mm 0.00 in0.0 mm 0.62 in15.7 mm
05:36 PM 68.8°F20.4°C 67.6°F19.8°C 96% 1.5 mph SW2.4 kmh SW 5.0 mph8.0 kmh 29.84 in1010.5 mb 0.40 in10.2 mm 0.00 in0.0 mm 0.62 in15.7 mm
05:41 PM 69.0°F20.6°C 67.5°F19.7°C 95% 2.3 mph SW3.7 kmh SW 6.0 mph9.7 kmh 29.85 in1010.8 mb 0.26 in6.6 mm 0.00 in0.0 mm 0.62 in15.7 mm
05:46 PM 69.1°F20.6°C 67.9°F19.9°C 96% 2.5 mph SW4.0 kmh SW 6.0 mph9.7 kmh 29.85 in1010.8 mb 0.04 in1.0 mm 0.00 in0.0 mm 0.62 in15.7 mm
05:51 PM 69.4°F20.8°C 68.2°F20.1°C 96% 2.2 mph SW3.5 kmh SW 7.0 mph11.3 kmh 29.86 in1011.2 mb 0.00 in0.0 mm 0.00 in0.0 mm 0.62 in15.7 mm
05:57 PM 69.6°F20.9°C 68.4°F20.2°C 96% 1.8 mph SW2.9 kmh SW 7.0 mph11.3 kmh 29.87 in1011.5 mb 0.00 in0.0 mm 0.00 in0.0 mm 0.62 in15.7 mm
06:02 PM 69.7°F20.9°C 68.5°F20.3°C 96% 2.5 mph SW4.0 kmh SW 7.0 mph11.3 kmh 29.87 in1011.5 mb 0.00 in0.0 mm 0.00 in0.0 mm 0.62 in15.7 mm
06:07 PM 69.7°F20.9°C 68.5°F20.3°C 96% 2.0 mph SW3.2 kmh SW 6.0 mph9.7 kmh 29.87 in1011.5 mb 0.00 in0.0 mm 0.00 in0.0 mm 0.62 in15.7 mm
06:11 PM 69.8°F21.0°C 68.6°F20.3°C 96% 1.5 mph SW2.4 kmh SW 6.0 mph9.7 kmh 29.87 in1011.5 mb 0.00 in0.0 mm 0.00 in0.0 mm 0.62 in15.7 mm
06:16 PM 69.9°F21.1°C 68.7°F20.4°C 96% 2.0 mph SW3.2 kmh SW 6.0 mph9.7 kmh 29.88 in1011.9 mb 0.00 in0.0 mm 0.00 in0.0 mm 0.62 in15.7 mm
06:22 PM 70.0°F21.1°C 68.8°F20.4°C 96% 1.8 mph SE2.9 kmh SE 6.0 mph9.7 kmh 29.87 in1011.5 mb 0.06 in1.5 mm 0.60 in15.2 mm 0.68 in17.3 mm
06:27 PM 70.1°F21.2°C 68.9°F20.5°C 96% 1.8 mph SSE2.9 kmh SSE 6.0 mph9.7 kmh 29.87 in1011.5 mb 0.06 in1.5 mm 0.00 in0.0 mm 0.68 in17.3 mm
06:32 PM 70.1°F21.2°C 68.9°F20.5°C 96% 4.3 mph SE6.9 kmh SE 8.0 mph12.9 kmh 29.85 in1010.8 mb 0.06 in1.5 mm 0.00 in0.0 mm 0.68 in17.3 mm
06:37 PM 70.2°F21.2°C 69.3°F20.7°C 97% 2.3 mph SSE3.7 kmh SSE 9.0 mph14.5 kmh 29.86 in1011.2 mb 0.06 in1.5 mm 0.00 in0.0 mm 0.68 in17.3 mm
06:42 PM 70.4°F21.3°C 69.5°F20.8°C 97% 1.4 mph SSE2.3 kmh SSE 9.0 mph14.5 kmh 29.86 in1011.2 mb 0.06 in1.5 mm 0.00 in0.0 mm 0.68 in17.3 mm
06:48 PM 70.4°F21.3°C 69.5°F20.8°C 97% 3.1 mph SSE5.0 kmh SSE 9.0 mph14.5 kmh 29.85 in1010.8 mb 0.06 in1.5 mm 0.00 in0.0 mm 0.68 in17.3 mm
06:53 PM 70.5°F21.4°C 69.6°F20.9°C 97% 2.0 mph S3.2 kmh S 8.0 mph12.9 kmh 29.85 in1010.8 mb 0.06 in1.5 mm 0.00 in0.0 mm 0.68 in17.3 mm
06:58 PM 70.6°F21.4°C 69.7°F20.9°C 97% 2.1 mph S3.4 kmh S 6.0 mph9.7 kmh 29.85 in1010.8 mb 0.06 in1.5 mm 0.00 in0.0 mm 0.68 in17.3 mm
07:03 PM 70.6°F21.4°C 69.7°F20.9°C 97% 1.8 mph SE2.9 kmh SE 6.0 mph9.7 kmh 29.85 in1010.8 mb 0.06 in1.5 mm 0.00 in0.0 mm 0.68 in17.3 mm
07:08 PM 70.7°F21.5°C 69.8°F21.0°C 97% 1.2 mph SW1.9 kmh SW 4.0 mph6.4 kmh 29.86 in1011.2 mb 0.06 in1.5 mm 0.00 in0.0 mm 0.68 in17.3 mm
07:14 PM 70.7°F21.5°C 69.8°F21.0°C 97% 2.3 mph S3.7 kmh S 4.0 mph6.4 kmh 29.86 in1011.2 mb 0.06 in1.5 mm 0.00 in0.0 mm 0.68 in17.3 mm
07:19 PM 70.6°F21.4°C 69.7°F20.9°C 97% 2.5 mph SE4.0 kmh SE 6.0 mph9.7 kmh 29.86 in1011.2 mb 0.04 in1.0 mm 0.00 in0.0 mm 0.68 in17.3 mm
07:24 PM 70.5°F21.4°C 69.3°F20.7°C 96% 1.5 mph SSW2.4 kmh SSW 6.0 mph9.7 kmh 29.86 in1011.2 mb 0.00 in0.0 mm 0.00 in0.0 mm 0.68 in17.3 mm
07:29 PM 70.5°F21.4°C 69.6°F20.9°C 97% 2.3 mph SW3.7 kmh SW 6.0 mph9.7 kmh 29.86 in1011.2 mb 0.00 in0.0 mm 0.00 in0.0 mm 0.68 in17.3 mm
07:34 PM 70.5°F21.4°C 69.6°F20.9°C 97% 1.5 mph S2.4 kmh S 6.0 mph9.7 kmh 29.86 in1011.2 mb 0.00 in0.0 mm 0.00 in0.0 mm 0.68 in17.3 mm
07:40 PM 70.4°F21.3°C 69.5°F20.8°C 97% 1.2 mph S1.9 kmh S 4.0 mph6.4 kmh 29.87 in1011.5 mb 0.00 in0.0 mm 0.00 in0.0 mm 0.68 in17.3 mm
07:45 PM 70.3°F21.3°C 69.4°F20.8°C 97% 1.3 mph SW2.1 kmh SW 4.0 mph6.4 kmh 29.87 in1011.5 mb 0.00 in0.0 mm 0.00 in0.0 mm 0.68 in17.3 mm
07:50 PM 70.3°F21.3°C 69.4°F20.8°C 97% 1.2 mph SE1.9 kmh SE 4.0 mph6.4 kmh 29.87 in1011.5 mb 0.00 in0.0 mm 0.00 in0.0 mm 0.68 in17.3 mm
07:55 PM 70.3°F21.3°C 69.4°F20.8°C 97% 1.4 mph S2.3 kmh S 4.0 mph6.4 kmh 29.87 in1011.5 mb 0.00 in0.0 mm 0.00 in0.0 mm 0.68 in17.3 mm
08:00 PM 70.2°F21.2°C 69.3°F20.7°C 97% 1.0 mph SSE1.6 kmh SSE 4.0 mph6.4 kmh 29.88 in1011.9 mb 0.00 in0.0 mm 0.00 in0.0 mm 0.68 in17.3 mm
08:06 PM 70.1°F21.2°C 69.2°F20.7°C 97% 1.6 mph SE2.6 kmh SE 4.0 mph6.4 kmh 29.87 in1011.5 mb 0.00 in0.0 mm 0.00 in0.0 mm 0.68 in17.3 mm
08:11 PM 70.0°F21.1°C 69.1°F20.6°C 97% 1.3 mph S2.1 kmh S 4.0 mph6.4 kmh 29.87 in1011.5 mb 0.00 in0.0 mm 0.00 in0.0 mm 0.68 in17.3 mm
08:16 PM 69.9°F21.1°C 69.0°F20.6°C 97% 1.5 mph S2.4 kmh S 4.0 mph6.4 kmh 29.87 in1011.5 mb 0.00 in0.0 mm 0.00 in0.0 mm 0.68 in17.3 mm
08:21 PM 69.8°F21.0°C 68.9°F20.5°C 97% Calm Calm 4.0 mph6.4 kmh 29.87 in1011.5 mb 0.00 in0.0 mm 0.00 in0.0 mm 0.68 in17.3 mm
08:26 PM 69.7°F20.9°C 68.8°F20.4°C 97% 1.0 mph SSE1.6 kmh SSE 4.0 mph6.4 kmh 29.87 in1011.5 mb 0.00 in0.0 mm 0.00 in0.0 mm 0.68 in17.3 mm
08:32 PM 69.6°F20.9°C 68.7°F20.4°C 97% Calm Calm 4.0 mph6.4 kmh 29.87 in1011.5 mb 0.00 in0.0 mm 0.00 in0.0 mm 0.68 in17.3 mm
08:37 PM 69.5°F20.8°C 68.6°F20.3°C 97% Calm Calm 4.0 mph6.4 kmh 29.87 in1011.5 mb 0.00 in0.0 mm 0.00 in0.0 mm 0.68 in17.3 mm
08:42 PM 69.4°F20.8°C 68.5°F20.3°C 97% Calm Calm 1.0 mph1.6 kmh 29.87 in1011.5 mb 0.00 in0.0 mm 0.00 in0.0 mm 0.68 in17.3 mm
08:47 PM 69.3°F20.7°C 68.4°F20.2°C 97% 1.0 mph SW1.6 kmh SW 3.0 mph4.8 kmh 29.88 in1011.9 mb 0.00 in0.0 mm 0.00 in0.0 mm 0.68 in17.3 mm
08:52 PM 69.2°F20.7°C 68.3°F20.2°C 97% Calm Calm 3.0 mph4.8 kmh 29.88 in1011.9 mb 0.00 in0.0 mm 0.00 in0.0 mm 0.68 in17.3 mm
08:58 PM 69.2°F20.7°C 68.3°F20.2°C 97% Calm Calm 3.0 mph4.8 kmh 29.88 in1011.9 mb 0.00 in0.0 mm 0.00 in0.0 mm 0.68 in17.3 mm
09:03 PM 69.1°F20.6°C 68.2°F20.1°C 97% 1.2 mph SW1.9 kmh SW 2.0 mph3.2 kmh 29.88 in1011.9 mb 0.00 in0.0 mm 0.00 in0.0 mm 0.68 in17.3 mm
09:08 PM 69.1°F20.6°C 68.2°F20.1°C 97% 1.4 mph SW2.3 kmh SW 3.0 mph4.8 kmh 29.88 in1011.9 mb 0.00 in0.0 mm 0.00 in0.0 mm 0.68 in17.3 mm
09:13 PM 69.1°F20.6°C 68.2°F20.1°C 97% 1.4 mph SW2.3 kmh SW 3.0 mph4.8 kmh 29.87 in1011.5 mb 0.00 in0.0 mm 0.00 in0.0 mm 0.68 in17.3 mm
09:18 PM 69.0°F20.6°C 68.1°F20.1°C 97% 1.3 mph SW2.1 kmh SW 3.0 mph4.8 kmh 29.87 in1011.5 mb 0.00 in0.0 mm 0.00 in0.0 mm 0.68 in17.3 mm
09:24 PM 68.9°F20.5°C 68.0°F20.0°C 97% Calm Calm 3.0 mph4.8 kmh 29.87 in1011.5 mb 0.00 in0.0 mm 0.00 in0.0 mm 0.68 in17.3 mm
09:29 PM 68.8°F20.4°C 67.9°F19.9°C 97% 1.3 mph SSE2.1 kmh SSE 3.0 mph4.8 kmh 29.87 in1011.5 mb 0.00 in0.0 mm 0.00 in0.0 mm 0.68 in17.3 mm
09:34 PM 68.7°F20.4°C 67.8°F19.9°C 97% 1.8 mph SW2.9 kmh SW 4.0 mph6.4 kmh 29.87 in1011.5 mb 0.00 in0.0 mm 0.00 in0.0 mm 0.68 in17.3 mm
09:39 PM 68.6°F20.3°C 67.7°F19.8°C 97% 1.2 mph SW1.9 kmh SW 4.0 mph6.4 kmh 29.87 in1011.5 mb 0.00 in0.0 mm 0.00 in0.0 mm 0.68 in17.3 mm
09:44 PM 68.6°F20.3°C 67.7°F19.8°C 97% 1.0 mph SW1.6 kmh SW 4.0 mph6.4 kmh 29.87 in1011.5 mb 0.00 in0.0 mm 0.00 in0.0 mm 0.68 in17.3 mm
09:50 PM 68.6°F20.3°C 68.0°F20.0°C 98% 1.4 mph S2.3 kmh S 4.0 mph6.4 kmh 29.87 in1011.5 mb 0.00 in0.0 mm 0.00 in0.0 mm 0.68 in17.3 mm
09:55 PM 68.5°F20.3°C 67.9°F19.9°C 98% 1.0 mph WSW1.6 kmh WSW 3.0 mph4.8 kmh 29.87 in1011.5 mb 0.00 in0.0 mm 0.00 in0.0 mm 0.68 in17.3 mm
10:00 PM 68.4°F20.2°C 67.8°F19.9°C 98% 1.0 mph WSW1.6 kmh WSW 3.0 mph4.8 kmh 29.87 in1011.5 mb 0.00 in0.0 mm 0.00 in0.0 mm 0.68 in17.3 mm
10:05 PM 68.3°F20.2°C 67.7°F19.8°C 98% 1.5 mph S2.4 kmh S 3.0 mph4.8 kmh 29.88 in1011.9 mb 0.00 in0.0 mm 0.00 in0.0 mm 0.68 in17.3 mm
10:10 PM 68.3°F20.2°C 67.7°F19.8°C 98% 1.2 mph SW1.9 kmh SW 2.0 mph3.2 kmh 29.88 in1011.9 mb 0.00 in0.0 mm 0.00 in0.0 mm 0.68 in17.3 mm
10:16 PM 68.3°F20.2°C 67.7°F19.8°C 98% 1.2 mph SW1.9 kmh SW 4.0 mph6.4 kmh 29.88 in1011.9 mb 0.00 in0.0 mm 0.00 in0.0 mm 0.68 in17.3 mm
10:21 PM 68.2°F20.1°C 67.6°F19.8°C 98% 1.2 mph SW1.9 kmh SW 4.0 mph6.4 kmh 29.88 in1011.9 mb 0.00 in0.0 mm 0.00 in0.0 mm 0.68 in17.3 mm
10:26 PM 68.2°F20.1°C 67.6°F19.8°C 98% 1.0 mph SSW1.6 kmh SSW 4.0 mph6.4 kmh 29.88 in1011.9 mb 0.00 in0.0 mm 0.00 in0.0 mm 0.68 in17.3 mm
10:31 PM 68.2°F20.1°C 67.6°F19.8°C 98% 1.4 mph S2.3 kmh S 4.0 mph6.4 kmh 29.88 in1011.9 mb 0.00 in0.0 mm 0.00 in0.0 mm 0.68 in17.3 mm
10:36 PM 68.1°F20.1°C 67.5°F19.7°C 98% 2.5 mph SSW4.0 kmh SSW 3.0 mph4.8 kmh 29.88 in1011.9 mb 0.00 in0.0 mm 0.00 in0.0 mm 0.68 in17.3 mm
10:42 PM 68.1°F20.1°C 67.5°F19.7°C 98% 1.3 mph SSW2.1 kmh SSW 3.0 mph4.8 kmh 29.88 in1011.9 mb 0.00 in0.0 mm 0.00 in0.0 mm 0.68 in17.3 mm
10:47 PM 68.1°F20.1°C 67.5°F19.7°C 98% 1.2 mph SSW1.9 kmh SSW 3.0 mph4.8 kmh 29.88 in1011.9 mb 0.00 in0.0 mm 0.00 in0.0 mm 0.68 in17.3 mm
10:52 PM 68.1°F20.1°C 67.5°F19.7°C 98% 1.5 mph S2.4 kmh S 3.0 mph4.8 kmh 29.88 in1011.9 mb 0.00 in0.0 mm 0.00 in0.0 mm 0.68 in17.3 mm
10:57 PM 68.1°F20.1°C 67.5°F19.7°C 98% 1.0 mph S1.6 kmh S 3.0 mph4.8 kmh 29.88 in1011.9 mb 0.00 in0.0 mm 0.00 in0.0 mm 0.68 in17.3 mm
11:02 PM 68.1°F20.1°C 67.5°F19.7°C 98% 1.7 mph SSW2.7 kmh SSW 3.0 mph4.8 kmh 29.88 in1011.9 mb 0.00 in0.0 mm 0.00 in0.0 mm 0.68 in17.3 mm
11:08 PM 68.1°F20.1°C 67.5°F19.7°C 98% 2.2 mph SSW3.5 kmh SSW 4.0 mph6.4 kmh 29.88 in1011.9 mb 0.00 in0.0 mm 0.00 in0.0 mm 0.68 in17.3 mm
11:12 PM 68.0°F20.0°C 67.4°F19.7°C 98% 1.1 mph S1.8 kmh S 4.0 mph6.4 kmh 29.88 in1011.9 mb 0.00 in0.0 mm 0.00 in0.0 mm 0.68 in17.3 mm
11:17 PM 68.0°F20.0°C 67.4°F19.7°C 98% 2.4 mph S3.9 kmh S 4.0 mph6.4 kmh 29.88 in1011.9 mb 0.00 in0.0 mm 0.00 in0.0 mm 0.68 in17.3 mm
11:22 PM 67.9°F19.9°C 67.3°F19.6°C 98% 1.7 mph SSW2.7 kmh SSW 4.0 mph6.4 kmh 29.88 in1011.9 mb 0.00 in0.0 mm 0.00 in0.0 mm 0.68 in17.3 mm
11:27 PM 68.0°F20.0°C 67.4°F19.7°C 98% 1.0 mph SW1.6 kmh SW 4.0 mph6.4 kmh 29.88 in1011.9 mb 0.00 in0.0 mm 0.00 in0.0 mm 0.68 in17.3 mm
11:33 PM 67.9°F19.9°C 67.3°F19.6°C 98% 1.6 mph SW2.6 kmh SW 4.0 mph6.4 kmh 29.88 in1011.9 mb 0.00 in0.0 mm 0.00 in0.0 mm 0.68 in17.3 mm
11:38 PM 67.9°F19.9°C 67.3°F19.6°C 98% 1.8 mph SW2.9 kmh SW 5.0 mph8.0 kmh 29.88 in1011.9 mb 0.00 in0.0 mm 0.00 in0.0 mm 0.68 in17.3 mm
11:43 PM 67.8°F19.9°C 67.2°F19.6°C 98% 1.0 mph S1.6 kmh S 5.0 mph8.0 kmh 29.88 in1011.9 mb 0.00 in0.0 mm 0.00 in0.0 mm 0.68 in17.3 mm
11:48 PM 67.9°F19.9°C 67.3°F19.6°C 98% Calm Calm 5.0 mph8.0 kmh 29.87 in1011.5 mb 0.00 in0.0 mm 0.00 in0.0 mm 0.68 in17.3 mm
11:53 PM 67.8°F19.9°C 67.2°F19.6°C 98% 1.1 mph SW1.8 kmh SW 5.0 mph8.0 kmh 29.87 in1011.5 mb 0.00 in0.0 mm 0.00 in0.0 mm 0.68 in17.3 mm
11:59 PM 67.8°F19.9°C 67.2°F19.6°C 98% 1.8 mph SSW2.9 kmh SSW 4.0 mph6.4 kmh 29.87 in1011.5 mb 0.00 in0.0 mm 0.00 in0.0 mm 0.68 in17.3 mm